createdAt,value
2023-03-08T00:01:19.000Z,97271.11032524712
2023-03-08T00:04:16.384Z,97269.96575382522
2023-03-08T00:07:16.205Z,97263.85113338714
2023-03-08T00:11:16.335Z,97251.95897282576
2023-03-08T00:14:16.636Z,97259.65895540958
2023-03-08T00:17:17.047Z,97264.33304174426
2023-03-08T00:21:17.607Z,97264.22033119692
2023-03-08T00:24:16.923Z,97254.64957373549
2023-03-08T00:27:15.981Z,97250.54482112368
2023-03-08T00:31:15.999Z,97234.58196694386
2023-03-08T00:34:16.816Z,97238.92818721093
2023-03-08T00:37:16.438Z,97280.56696521101
2023-03-08T00:41:17.189Z,97260.4340168968
2023-03-08T00:44:16.972Z,97282.12436253039
2023-03-08T00:47:16.929Z,97272.1135639692
2023-03-08T00:51:17.449Z,97275.69290263626
2023-03-08T00:54:15.846Z,97261.702029371
2023-03-08T00:57:16.602Z,97263.41868935886
2023-03-08T01:01:18.638Z,97263.28071636711
2023-03-08T01:04:16.558Z,97265.90686647088
2023-03-08T01:07:16.467Z,97262.44612442539
2023-03-08T01:11:19.428Z,97253.01471805149
2023-03-08T01:14:16.648Z,97266.5294249411
2023-03-08T01:17:16.613Z,97252.61654175451
2023-03-08T01:21:16.413Z,97244.18997452268
2023-03-08T01:24:16.327Z,97244.96332149467
2023-03-08T01:27:17.160Z,97255.01390811824
2023-03-08T01:31:17.605Z,97238.28744194441
2023-03-08T01:34:16.671Z,97247.87000018785
2023-03-08T01:37:15.999Z,97242.77664667949
2023-03-08T01:41:18.542Z,97235.82031467477
2023-03-08T01:44:19.061Z,97233.59061578228
2023-03-08T01:47:18.962Z,97236.0452130986
2023-03-08T01:51:21.615Z,97217.17622239875
2023-03-08T01:54:21.474Z,97221.50949467633
2023-03-08T01:57:19.369Z,97218.17980433824
2023-03-08T02:01:17.912Z,97213.13686674717
2023-03-08T02:04:16.713Z,97214.39882664454
2023-03-08T02:07:16.289Z,97209.4668118616
2023-03-08T02:11:17.952Z,97210.64837141921
2023-03-08T02:14:16.438Z,97202.21885642005
2023-03-08T02:17:16.630Z,97206.49162487529
2023-03-08T02:21:16.253Z,97204.51869375556
2023-03-08T02:24:19.683Z,97201.6548604014
2023-03-08T02:27:20.825Z,97197.44409587212
2023-03-08T02:31:15.996Z,97198.61916044542
2023-03-08T02:34:16.020Z,97213.38903189095
2023-03-08T02:37:16.031Z,97204.79981349499
2023-03-08T02:41:16.073Z,97205.65816047548
2023-03-08T02:44:16.519Z,97211.40103946048
2023-03-08T02:47:16.471Z,97207.40244575772
2023-03-08T02:51:15.989Z,97223.04875901648
2023-03-08T02:54:17.088Z,97205.92908309506
2023-03-08T02:57:16.567Z,97204.21412911215
2023-03-08T03:01:16.152Z,97204.86333420423
2023-03-08T03:04:16.403Z,97220.91364220803
2023-03-08T03:07:16.528Z,97213.35669769364
2023-03-08T03:11:17.987Z,97224.22476909927
2023-03-08T03:14:16.440Z,97224.13017742758
2023-03-08T03:17:16.233Z,97221.75711138788
2023-03-08T03:21:15.447Z,97220.44200496857
2023-03-08T03:24:15.869Z,97224.27052416839
2023-03-08T03:27:15.973Z,97226.4276363341
2023-03-08T03:31:18.938Z,97226.41907178397
2023-03-08T03:34:16.437Z,97225.53170713765
2023-03-08T03:37:16.594Z,97232.70257321552
2023-03-08T03:41:17.772Z,97225.19381985153
2023-03-08T03:44:16.649Z,97226.83329541274
2023-03-08T03:47:16.779Z,97224.66650419477
2023-03-08T03:51:18.736Z,97226.58016927815
2023-03-08T03:54:16.481Z,97231.20598674068
2023-03-08T03:57:16.734Z,97230.68312698683
2023-03-08T04:01:18.428Z,97227.55649525678
2023-03-08T04:04:17.464Z,97236.76466713325
2023-03-08T04:07:16.377Z,97240.55744148143
2023-03-08T04:11:18.773Z,97228.16776413562
2023-03-08T04:14:17.424Z,97233.83398107634
2023-03-08T04:17:16.714Z,97238.46570178607
2023-03-08T04:21:16.269Z,97235.51855088031
2023-03-08T04:24:16.661Z,97232.77402617004
2023-03-08T04:27:16.690Z,97238.41307836941
2023-03-08T04:31:18.580Z,97233.12408159161
2023-03-08T04:34:16.072Z,97236.1515951922
2023-03-08T04:37:16.086Z,97247.44991656275
2023-03-08T04:41:17.112Z,97246.8530830291
2023-03-08T04:44:16.457Z,97256.08247616523
2023-03-08T04:47:16.282Z,97257.51323729554
2023-03-08T04:51:16.612Z,97263.02547194023
2023-03-08T04:54:16.265Z,97266.32286750962
2023-03-08T04:57:16.289Z,97270.69905588406
2023-03-08T05:01:18.293Z,97271.08179349307
2023-03-08T05:04:16.125Z,97274.53347168419
2023-03-08T05:07:16.148Z,97272.95018532287
2023-03-08T05:11:18.927Z,97276.06444036745
2023-03-08T05:14:16.762Z,97275.76270025865
2023-03-08T05:17:16.942Z,97269.67510401526
2023-03-08T05:21:18.969Z,97275.39537724026
2023-03-08T05:24:16.734Z,97278.16717499099
2023-03-08T05:27:16.681Z,97272.92416790006
2023-03-08T05:31:18.540Z,97268.77466106272
2023-03-08T05:34:16.441Z,97272.3939744835
2023-03-08T05:37:16.456Z,97275.44269733566
2023-03-08T05:41:16.836Z,97277.63106024107
2023-03-08T05:44:17.020Z,97284.28073784903
2023-03-08T05:47:16.932Z,97288.94800981558
2023-03-08T05:51:17.874Z,97295.89109392451
2023-03-08T05:54:16.154Z,97297.34187267875
2023-03-08T05:57:16.281Z,97297.93994191317
2023-03-08T06:01:19.207Z,97297.89345399811
2023-03-08T06:04:16.607Z,97299.22886470966
2023-03-08T06:07:16.448Z,97303.55510418685
2023-03-08T06:11:16.622Z,97308.02009465775
2023-03-08T06:14:16.342Z,97314.06589970007
2023-03-08T06:17:16.243Z,97322.5090303309
2023-03-08T06:21:18.065Z,97322.3470769043
2023-03-08T06:24:16.724Z,97323.38805791816
2023-03-08T06:27:17.082Z,97329.80310192038
2023-03-08T06:31:17.848Z,97343.08589425967
2023-03-08T06:34:16.503Z,97340.97632914703
2023-03-08T06:37:16.570Z,97347.96829072268
2023-03-08T06:41:17.880Z,97352.32275713705
2023-03-08T06:44:16.520Z,97355.67600385458
2023-03-08T06:47:16.607Z,97359.06693099912
2023-03-08T06:51:16.974Z,97360.66717317971
2023-03-08T06:54:17.628Z,97365.67621745517
2023-03-08T06:57:16.117Z,97373.7509679624
2023-03-08T07:01:17.835Z,97378.97198725754
2023-03-08T07:04:18.243Z,97377.01071785383
2023-03-08T07:07:16.362Z,97377.67786959592
2023-03-08T07:11:16.315Z,97389.57694686095
2023-03-08T07:14:16.676Z,97386.75827498575
2023-03-08T07:17:16.635Z,97392.27719033978
2023-03-08T07:21:16.107Z,97401.73771775478
2023-03-08T07:24:16.514Z,97405.34578531967
2023-03-08T07:27:16.650Z,97411.05953796317
2023-03-08T07:31:16.085Z,97419.98915959235
2023-03-08T07:34:16.341Z,97425.39619639424
2023-03-08T07:37:16.423Z,97417.36753855225
2023-03-08T07:41:16.150Z,97419.8608112764
2023-03-08T07:44:16.404Z,97419.46706843053
2023-03-08T07:47:16.414Z,97425.27445904778
2023-03-08T07:51:15.923Z,97426.3161595622
2023-03-08T07:54:16.397Z,97418.26461898748
2023-03-08T07:57:15.952Z,97420.26811109303
2023-03-08T08:01:15.976Z,97422.53390696684
2023-03-08T08:04:16.534Z,97420.69026637032
2023-03-08T08:07:16.425Z,97415.95308276713
2023-03-08T08:11:17.923Z,97426.77413015772
2023-03-08T08:14:16.684Z,97427.79626555009
2023-03-08T08:17:17.829Z,97426.537763659
2023-03-08T08:21:16.086Z,97427.18916280179
2023-03-08T08:24:16.311Z,97439.44343539016
2023-03-08T08:27:16.264Z,97436.4193016795
2023-03-08T08:31:19.119Z,97442.78334809552
2023-03-08T08:34:16.780Z,97450.53485140622
2023-03-08T08:37:16.873Z,97463.86842697783
2023-03-08T08:41:18.812Z,97467.94885324415
2023-03-08T08:44:16.668Z,97464.85801793053
2023-03-08T08:47:16.607Z,97460.76084385952
2023-03-08T08:51:16.352Z,97472.59085268732
2023-03-08T08:54:16.787Z,97482.60015394703
2023-03-08T08:57:16.697Z,97478.05097326776
2023-03-08T09:01:20.792Z,97489.36487804484
2023-03-08T09:04:19.846Z,97489.81260895835
2023-03-08T09:07:17.880Z,97488.12737701254
2023-03-08T09:11:15.926Z,97483.42070282417
2023-03-08T09:14:16.181Z,97502.06887263907
2023-03-08T09:17:16.096Z,97489.98568069143
2023-03-08T09:21:16.874Z,97489.96323034064
2023-03-08T09:24:17.127Z,97493.02503940748
2023-03-08T09:27:16.645Z,97493.80099439427
2023-03-08T09:31:17.951Z,97484.39650292254
2023-03-08T09:34:16.554Z,97487.95110771465
2023-03-08T09:37:16.587Z,97488.9328926206
2023-03-08T09:41:55.990Z,97499.53095801963
2023-03-08T09:44:30.419Z,97497.83663046962
2023-03-08T09:47:30.869Z,97502.35339430792
2023-03-08T09:51:19.701Z,97504.33793771426
2023-03-08T09:54:20.799Z,97510.58774649304
2023-03-08T09:57:21.827Z,97509.97856134115
2023-03-08T10:01:26.901Z,97516.63573019301
2023-03-08T10:04:34.901Z,97521.94151824259
2023-03-08T10:07:26.443Z,97533.61458269102
2023-03-08T10:11:23.091Z,97532.89309138323
2023-03-08T10:14:21.035Z,97537.94409420903
2023-03-08T10:17:20.707Z,97533.81631501683
2023-03-08T10:21:19.681Z,97537.78604801145
2023-03-08T10:24:22.015Z,97530.8483075414
2023-03-08T10:27:20.436Z,97529.79475451172
2023-03-08T10:31:21.148Z,97524.43748015555
2023-03-08T10:34:19.162Z,97510.09230634195
2023-03-08T10:37:19.240Z,97506.73090824478
2023-03-08T10:41:16.802Z,97500.18552278525
2023-03-08T10:44:31.239Z,97512.87714224837
2023-03-08T10:47:20.201Z,97492.8186368905
2023-03-08T10:51:18.687Z,97484.51172483976
2023-03-08T10:54:16.147Z,97473.89417513856
2023-03-08T10:57:18.895Z,97447.35157594722
2023-03-08T11:01:24.374Z,97449.63226476517
2023-03-08T11:04:18.436Z,97455.1618324384
2023-03-08T11:07:21.435Z,97454.0435598943
2023-03-08T11:11:16.315Z,97474.29946909525
2023-03-08T11:14:16.875Z,97463.66152614202
2023-03-08T11:17:21.386Z,97474.10038863351
2023-03-08T11:21:23.293Z,97464.70419237895
2023-03-08T11:24:31.075Z,97458.30323844551
2023-03-08T11:27:30.282Z,97472.88337314903
2023-03-08T11:31:27.599Z,97486.0398849756
2023-03-08T11:34:29.621Z,97490.47935910273
2023-03-08T11:37:25.224Z,97485.44373098538
2023-03-08T11:41:24.634Z,97490.32552454354
2023-03-08T11:44:31.387Z,97474.11990076299
2023-03-08T11:47:39.565Z,97474.38173136677
2023-03-08T11:51:25.339Z,97494.40641454671
2023-03-08T11:54:38.231Z,97490.32266885864
2023-03-08T11:57:17.777Z,97498.98808514797
2023-03-08T12:01:20.226Z,97492.05218545874
2023-03-08T12:04:20.959Z,97493.81009386202
2023-03-08T12:07:24.666Z,97491.68998665469
2023-03-08T12:11:20.463Z,97505.29637718086
2023-03-08T12:14:20.488Z,97495.24753545132
2023-03-08T12:17:20.779Z,97493.40196736537
2023-03-08T12:21:26.421Z,97491.19846508859
2023-03-08T12:24:31.738Z,97501.17421134173
2023-03-08T12:27:21.511Z,97495.65780005518
2023-03-08T12:31:28.377Z,97470.44060717116
2023-03-08T12:34:26.592Z,97465.45707742081
2023-03-08T12:37:21.052Z,97459.96442882178
2023-03-08T12:41:23.836Z,97468.3921514939
2023-03-08T12:44:24.607Z,97471.61972289514
2023-03-08T12:47:20.504Z,97484.69564585834
2023-03-08T12:51:24.171Z,97471.5419730418
2023-03-08T12:54:22.389Z,97471.50332832306
2023-03-08T12:57:26.614Z,97473.39277929477
2023-03-08T13:01:29.588Z,97479.3704959279
2023-03-08T13:04:39.183Z,97481.8685319256
2023-03-08T13:07:26.409Z,97489.09552949178
2023-03-08T13:11:17.601Z,97492.68480470125
2023-03-08T13:14:26.621Z,97475.38219233851
2023-03-08T13:17:52.600Z,97473.03489722908
2023-03-08T13:21:25.991Z,97470.09413584664
2023-03-08T13:24:25.244Z,97468.28590616478
2023-03-08T13:27:25.681Z,97466.43096379912
2023-03-08T13:31:18.844Z,97466.76727870265
2023-03-08T13:34:24.612Z,97470.12432244305
2023-03-08T13:37:21.076Z,97467.1928807475
2023-03-08T13:41:16.134Z,97459.94828067049
2023-03-08T13:44:18.568Z,97475.20773758856
2023-03-08T13:47:23.382Z,97465.5992750873
2023-03-08T13:51:16.916Z,97475.50078712877
2023-03-08T13:54:23.589Z,97475.90869379754
2023-03-08T13:57:21.697Z,97474.63409932287
2023-03-08T14:01:20.127Z,97483.89619435424
2023-03-08T14:04:20.158Z,97488.93103297913
2023-03-08T14:07:21.281Z,97503.77522105764
2023-03-08T14:11:20.601Z,97495.75897972225
2023-03-08T14:14:21.723Z,97499.61823800078
2023-03-08T14:17:20.300Z,97492.04368016937
2023-03-08T14:21:19.367Z,97477.7596065087
2023-03-08T14:24:20.686Z,97470.25272308236
2023-03-08T14:27:32.266Z,97475.32559932403
2023-03-08T14:31:24.958Z,97476.29882639869
2023-03-08T14:34:20.300Z,97471.12569643704
2023-03-08T14:37:22.066Z,97483.87423641913
2023-03-08T14:41:16.073Z,97474.53639548451
2023-03-08T14:44:19.905Z,97470.61584289548
2023-03-08T14:47:22.350Z,97482.96021077181
2023-03-08T14:51:39.040Z,97489.39774372995
2023-03-08T14:54:22.746Z,97482.67525423612
2023-03-08T14:57:18.749Z,97502.47718332754
2023-03-08T15:01:23.743Z,97496.21619170437
2023-03-08T15:04:19.001Z,97490.2252193663
2023-03-08T15:07:20.191Z,97499.84112190356
2023-03-08T15:11:16.436Z,97516.24486483543
2023-03-08T15:14:16.420Z,97518.76087880737
2023-03-08T15:17:16.343Z,97502.34472315194
2023-03-08T15:21:21.717Z,97503.24437402582
2023-03-08T15:24:18.534Z,97497.2006538429
2023-03-08T15:27:17.038Z,97506.82152546124
2023-03-08T15:31:15.836Z,97514.62858898843
2023-03-08T15:34:16.155Z,97509.10092330576
2023-03-08T15:37:16.140Z,97515.37240545808
2023-03-08T15:41:16.607Z,97519.98755323127
2023-03-08T15:44:16.284Z,97521.91374333654
2023-03-08T15:47:16.728Z,97516.48944951984
2023-03-08T15:51:17.842Z,97517.59031163115
2023-03-08T15:54:16.988Z,97513.77125345383
2023-03-08T15:57:17.248Z,97510.57127053657
2023-03-08T16:01:16.233Z,97514.10237557914
2023-03-08T16:04:16.499Z,97511.78223918648
2023-03-08T16:07:18.381Z,97515.13286274581
2023-03-08T16:11:17.957Z,97520.5250587129
2023-03-08T16:14:18.343Z,97514.51334213767
2023-03-08T16:17:17.444Z,97514.332820743
2023-03-08T16:21:16.429Z,97510.04145693635
2023-03-08T16:24:16.841Z,97523.70611263422
2023-03-08T16:27:16.368Z,97518.70827859668
2023-03-08T16:31:20.417Z,97511.68387471247
2023-03-08T16:34:17.209Z,97519.65715277394
2023-03-08T16:37:17.680Z,97518.6961872912
2023-03-08T16:41:16.549Z,97517.90528573896
2023-03-08T16:44:23.147Z,97536.7007942593
2023-03-08T16:47:17.139Z,97543.04767168593
2023-03-08T16:51:18.323Z,97558.95640107058
2023-03-08T16:54:16.551Z,97572.01758785627
2023-03-08T16:57:19.447Z,97580.15911227609
2023-03-08T17:01:18.180Z,97589.26894205951
2023-03-08T17:04:16.923Z,97578.97646898597
2023-03-08T17:07:17.151Z,97590.30476388133
2023-03-08T17:11:17.691Z,97590.28542824854
2023-03-08T17:14:16.511Z,97583.04338487009
2023-03-08T17:17:16.438Z,97585.84634407601
2023-03-08T17:21:17.172Z,97572.41954959951
2023-03-08T17:24:18.246Z,97574.81208154261
2023-03-08T17:27:16.982Z,97577.30469637775
2023-03-08T17:31:20.749Z,97572.15417871185
2023-03-08T17:34:17.972Z,97576.58711594675
2023-03-08T17:37:17.184Z,97576.92741628712
2023-03-08T17:41:17.042Z,97587.4785402791
2023-03-08T17:44:17.211Z,97597.56074633158
2023-03-08T17:47:17.248Z,97602.85217372629
2023-03-08T17:51:18.691Z,97597.29964331699
2023-03-08T17:54:18.655Z,97591.061481982
2023-03-08T17:57:18.915Z,97589.28093428734
2023-03-08T18:01:18.710Z,97613.89444914772
2023-03-08T18:04:16.609Z,97612.45736059213
2023-03-08T18:07:17.977Z,97608.4581735063
2023-03-08T18:11:16.596Z,97617.50430284005
2023-03-08T18:14:17.178Z,97619.55137993909
2023-03-08T18:17:17.434Z,97617.47806745095
2023-03-08T18:21:18.336Z,97629.63365190182
2023-03-08T18:24:17.067Z,97632.55209799859
2023-03-08T18:27:16.978Z,97638.33472136693
2023-03-08T18:31:18.567Z,97634.2448214796
2023-03-08T18:34:16.714Z,97634.17967756873
2023-03-08T18:37:16.772Z,97636.76739193083
2023-03-08T18:41:18.924Z,97640.01144886315
2023-03-08T18:44:17.180Z,97653.00729806052
2023-03-08T18:47:17.801Z,97653.60039460813
2023-03-08T18:51:16.663Z,97649.74465540821
2023-03-08T18:54:18.659Z,97653.44145181372
2023-03-08T18:57:16.801Z,97639.8017157593
2023-03-08T19:01:17.046Z,97638.18631995711
2023-03-08T19:04:17.616Z,97640.036194255
2023-03-08T19:07:16.773Z,97645.17482308288
2023-03-08T19:11:18.261Z,97669.11180021292
2023-03-08T19:14:17.181Z,97662.5546159483
2023-03-08T19:17:16.460Z,97667.71891830057
2023-03-08T19:21:17.796Z,97665.12102514498
2023-03-08T19:24:18.796Z,97659.33157732718
2023-03-08T19:27:16.568Z,97650.67239647859
2023-03-08T19:31:16.636Z,97665.98971680301
2023-03-08T19:34:17.578Z,97661.30255660685
2023-03-08T19:37:16.425Z,97663.34364400656
2023-03-08T19:41:16.376Z,97671.61147771557
2023-03-08T19:44:16.975Z,97670.11596672838
2023-03-08T19:47:18.103Z,97684.71318365901
2023-03-08T19:51:18.468Z,97686.01008320662
2023-03-08T19:54:17.557Z,97694.02833069715
2023-03-08T19:57:16.909Z,97699.40902791308
2023-03-08T20:01:19.251Z,97698.00408754635
2023-03-08T20:04:17.380Z,97702.1403098683
2023-03-08T20:07:17.333Z,97708.39732714651
2023-03-08T20:11:15.945Z,97707.94215886226
2023-03-08T20:14:16.322Z,97696.94053385507
2023-03-08T20:17:17.081Z,97696.49420488083
2023-03-08T20:21:16.420Z,97688.06052074555
2023-03-08T20:24:19.125Z,97681.89609606206
2023-03-08T20:27:17.012Z,97688.93099605676
2023-03-08T20:31:19.441Z,97690.24967999538
2023-03-08T20:34:19.159Z,97688.22953415557
2023-03-08T20:37:17.787Z,97684.33258299722
2023-03-08T20:41:21.555Z,97679.46899912777
2023-03-08T20:44:17.245Z,97680.00382384297
2023-03-08T20:47:17.223Z,97682.70731835553
2023-03-08T20:51:18.389Z,97685.67577830798
2023-03-08T20:54:17.332Z,97688.1649828256
2023-03-08T20:57:16.793Z,97689.0203439414
2023-03-08T21:01:20.891Z,97693.0442744879
2023-03-08T21:04:18.416Z,97694.04429713567
2023-03-08T21:07:18.314Z,97706.33804088768
2023-03-08T21:11:17.688Z,97707.29774297957
2023-03-08T21:14:17.226Z,97703.5772791144
2023-03-08T21:17:22.646Z,97695.9144960854
2023-03-08T21:21:19.747Z,97695.21325100973
2023-03-08T21:24:18.275Z,97688.37535243323
2023-03-08T21:27:17.024Z,97686.76913358024
2023-03-08T21:31:18.446Z,97694.22600531598
2023-03-08T21:34:17.944Z,97703.32838738606
2023-03-08T21:37:16.658Z,97703.63153730729
2023-03-08T21:41:16.634Z,97691.03682442437
2023-03-08T21:44:17.873Z,97689.23867425136
2023-03-08T21:47:16.514Z,97689.14179452609
2023-03-08T21:51:16.417Z,97690.4958581602
2023-03-08T21:54:17.493Z,97683.54578445134
2023-03-08T21:57:16.593Z,97680.19167103012
2023-03-08T22:01:18.690Z,97685.39334589483
2023-03-08T22:04:17.210Z,97674.0501530616
2023-03-08T22:07:16.849Z,97671.02109878874
2023-03-08T22:11:17.363Z,97668.1081448287
2023-03-08T22:14:16.545Z,97672.07819790547
2023-03-08T22:17:16.559Z,97668.39371053608
2023-03-08T22:21:16.538Z,97665.95358696798
2023-03-08T22:24:16.957Z,97656.36990031491
2023-03-08T22:27:16.987Z,97648.40604111885
2023-03-08T22:31:18.906Z,97646.9517119627
2023-03-08T22:34:17.386Z,97643.64539340444
2023-03-08T22:37:17.460Z,97643.00833930256
2023-03-08T22:41:18.416Z,97641.27249777013
2023-03-08T22:44:16.448Z,97644.13243090142
2023-03-08T22:47:16.818Z,97641.48944419577
2023-03-08T22:51:19.273Z,97656.51826486383
2023-03-08T22:54:18.881Z,97657.51714302313
2023-03-08T22:57:17.712Z,97652.2900501111
2023-03-08T23:01:19.126Z,97641.08648943371
2023-03-08T23:04:17.554Z,97632.76610846685
2023-03-08T23:07:17.193Z,97619.61655653434
2023-03-08T23:21:20.137Z,97622.6593642674
2023-03-08T23:24:17.946Z,97615.92720439956
2023-03-08T23:27:17.447Z,97613.90928989438
2023-03-08T23:31:19.238Z,97596.25882406061
2023-03-08T23:34:17.135Z,97591.60820652382
2023-03-08T23:37:17.009Z,97602.20381110041
2023-03-08T23:41:17.338Z,97602.3242102747
2023-03-08T23:44:18.833Z,97601.61130420073
2023-03-08T23:47:16.726Z,97606.3767035153
2023-03-08T23:51:18.789Z,97594.51768045875
2023-03-08T23:54:17.460Z,97588.10278301369
2023-03-08T23:57:17.171Z,97579.5111272117
